KSAF/SAF METAR and TAF weather

Enter ICAO airport designator
Station Type Date Time Source
KSAF METAR 2021/03/02 12:53 UTC NOAA

KSAF 021253Z AUTO 01011KT 10SM CLR M06/M17 A3023 RMK AO2 SLP237 T10561172


Station Type Date Time Source
KSAF Decoded METAR 2021/03/02 12:53 UTC NOAA

SANTA FE COUNTY MUNICIPAL, NM, United States (KSAF) 35-37N 106-05W 1930M
Mar 02, 2021 - 07:53 AM EST / 2021.03.02 1253 UTC
Wind: from the N (010 degrees) at 13 MPH (11 KT):0
Visibility: 10 mile(s):0
Sky conditions: clear
Temperature: 21.9 F (-5.6 C)
Windchill: 10 F (-12 C):1
Dew Point: 1.0 F (-17.2 C)
Relative Humidity: 39%
Pressure (altimeter): 30.23 in. Hg (1023 hPa)
ob: KSAF 021253Z AUTO 01011KT 10SM CLR M06/M17 A3023 RMK AO2 SLP237 T10561172
cycle: 13

Station Type Date Time Source
KSAF TAF 2021/03/02 12:22 UTC NOAA

TAF KSAF 021120Z 0212/0312 36012G18KT P6SM SKC
FM022000 28008KT P6SM SKC
FM030100 36006KT P6SM SKC

Example: see airport list